sensor_id;sensor_type;location;lat;lon;timestamp;pressure;altitude;pressure_sealevel;temperature;humidity
78825;BME280;68176;45.554;10.220;2024-01-10T01:16:07;100940.66;;;9.51;68.70
78825;BME280;68176;45.554;10.220;2024-01-10T01:18:32;100933.19;;;9.45;68.67
78825;BME280;68176;45.554;10.220;2024-01-10T01:21:03;100930.88;;;9.41;68.68
78825;BME280;68176;45.554;10.220;2024-01-10T01:23:34;100935.06;;;9.43;68.70
78825;BME280;68176;45.554;10.220;2024-01-10T01:26:01;100931.78;;;9.40;68.70
78825;BME280;68176;45.554;10.220;2024-01-10T01:28:31;100933.56;;;9.39;68.83
78825;BME280;68176;45.554;10.220;2024-01-10T01:31:04;100940.50;;;9.40;69.08
78825;BME280;68176;45.554;10.220;2024-01-10T01:33:34;100946.56;;;9.41;68.85
78825;BME280;68176;45.554;10.220;2024-01-10T01:43:45;100948.34;;;9.40;68.81
78825;BME280;68176;45.554;10.220;2024-01-10T01:46:11;100952.00;;;9.38;68.85
78825;BME280;68176;45.554;10.220;2024-01-10T01:48:39;100963.78;;;9.45;68.71
78825;BME280;68176;45.554;10.220;2024-01-10T01:51:11;100956.13;;;9.42;68.67
78825;BME280;68176;45.554;10.220;2024-01-10T01:53:40;100957.44;;;9.35;68.69
78825;BME280;68176;45.554;10.220;2024-01-10T01:56:12;100948.00;;;9.32;68.68
78825;BME280;68176;45.554;10.220;2024-01-10T01:58:40;100959.94;;;9.36;68.86
78825;BME280;68176;45.554;10.220;2024-01-10T02:01:10;100954.91;;;9.33;68.55
78825;BME280;68176;45.554;10.220;2024-01-10T02:03:42;100953.44;;;9.29;68.98
78825;BME280;68176;45.554;10.220;2024-01-10T02:06:12;100965.63;;;9.43;68.79
78825;BME280;68176;45.554;10.220;2024-01-10T02:08:39;100961.09;;;9.32;68.92
78825;BME280;68176;45.554;10.220;2024-01-10T02:11:09;100967.25;;;9.31;68.92
78825;BME280;68176;45.554;10.220;2024-01-10T02:13:40;100965.47;;;9.32;68.70
78825;BME280;68176;45.554;10.220;2024-01-10T02:16:15;100961.28;;;9.29;68.93
78825;BME280;68176;45.554;10.220;2024-01-10T02:18:40;100977.88;;;9.42;68.76
78825;BME280;68176;45.554;10.220;2024-01-10T02:21:12;100959.47;;;9.30;68.81
78825;BME280;68176;45.554;10.220;2024-01-10T02:23:40;100971.44;;;9.34;68.91
78825;BME280;68176;45.554;10.220;2024-01-10T02:26:13;100977.88;;;9.42;69.01
78825;BME280;68176;45.554;10.220;2024-01-10T02:28:39;100963.72;;;9.32;68.88
78825;BME280;68176;45.554;10.220;2024-01-10T02:31:09;100965.75;;;9.27;69.02
78825;BME280;68176;45.554;10.220;2024-01-10T02:33:39;100980.50;;;9.42;68.83
78825;BME280;68176;45.554;10.220;2024-01-10T02:36:13;100957.16;;;9.25;68.78
78825;BME280;68176;45.554;10.220;2024-01-10T02:38:39;100950.25;;;9.24;69.16
78825;BME280;68176;45.554;10.220;2024-01-10T03:51:06;100935.50;;;9.23;69.04
78825;BME280;68176;45.554;10.220;2024-01-10T03:53:32;100943.25;;;9.25;68.93
78825;BME280;68176;45.554;10.220;2024-01-10T03:55:59;100949.84;;;9.30;68.96
78825;BME280;68176;45.554;10.220;2024-01-10T03:58:29;100950.91;;;9.28;68.93
78825;BME280;68176;45.554;10.220;2024-01-10T04:01:04;100929.16;;;9.13;68.91
78825;BME280;68176;45.554;10.220;2024-01-10T04:03:30;100924.66;;;9.15;69.16
78825;BME280;68176;45.554;10.220;2024-01-10T04:06:00;100942.19;;;9.27;68.89
78825;BME280;68176;45.554;10.220;2024-01-10T04:08:33;100944.81;;;9.27;69.12
78825;BME280;68176;45.554;10.220;2024-01-10T04:11:00;100929.34;;;9.10;68.86
78825;BME280;68176;45.554;10.220;2024-01-10T04:13:30;100940.16;;;9.18;68.76
78825;BME280;68176;45.554;10.220;2024-01-10T04:16:00;100926.53;;;9.13;68.85
78825;BME280;68176;45.554;10.220;2024-01-10T04:18:30;100932.50;;;9.15;68.98
78825;BME280;68176;45.554;10.220;2024-01-10T04:20:59;100941.56;;;9.24;69.06
78825;BME280;68176;45.554;10.220;2024-01-10T04:23:30;100945.00;;;9.24;69.21
78825;BME280;68176;45.554;10.220;2024-01-10T04:26:01;100942.97;;;9.15;68.92
78825;BME280;68176;45.554;10.220;2024-01-10T04:28:30;100948.59;;;9.23;68.92
78825;BME280;68176;45.554;10.220;2024-01-10T04:31:00;100926.75;;;9.10;69.03
78825;BME280;68176;45.554;10.220;2024-01-10T04:33:30;100918.97;;;9.08;68.80
78825;BME280;68176;45.554;10.220;2024-01-10T04:36:02;100932.81;;;9.10;68.79
78825;BME280;68176;45.554;10.220;2024-01-10T04:38:33;100919.16;;;9.05;68.73
78825;BME280;68176;45.554;10.220;2024-01-10T04:41:00;100936.25;;;9.11;68.82
78825;BME280;68176;45.554;10.220;2024-01-10T04:43:30;100924.19;;;9.08;68.96
78825;BME280;68176;45.554;10.220;2024-01-10T04:46:02;100920.84;;;9.06;68.77
78825;BME280;68176;45.554;10.220;2024-01-10T04:48:32;100956.44;;;9.23;68.79
78825;BME280;68176;45.554;10.220;2024-01-10T04:51:00;100921.69;;;9.07;68.82
78825;BME280;68176;45.554;10.220;2024-01-10T04:53:32;100940.94;;;9.20;68.86
78825;BME280;68176;45.554;10.220;2024-01-10T04:56:00;100921.88;;;9.04;68.85
78825;BME280;68176;45.554;10.220;2024-01-10T04:58:30;100921.88;;;9.04;68.60
78825;BME280;68176;45.554;10.220;2024-01-10T05:01:00;100928.59;;;9.08;68.79
78825;BME280;68176;45.554;10.220;2024-01-10T05:03:30;100925.88;;;9.09;68.84
78825;BME280;68176;45.554;10.220;2024-01-10T05:06:00;100953.25;;;9.18;68.93
78825;BME280;68176;45.554;10.220;2024-01-10T05:08:30;100944.28;;;9.08;68.83
78825;BME280;68176;45.554;10.220;2024-01-10T05:16:56;100955.88;;;9.18;68.95
78825;BME280;68176;45.554;10.220;2024-01-10T05:29:43;100984.66;;;9.18;68.72
78825;BME280;68176;45.554;10.220;2024-01-10T05:32:11;100960.47;;;9.00;68.78
78825;BME280;68176;45.554;10.220;2024-01-10T05:34:39;100957.03;;;9.00;68.83
78825;BME280;68176;45.554;10.220;2024-01-10T05:37:05;100956.28;;;8.98;69.00
78825;BME280;68176;45.554;10.220;2024-01-10T05:39:33;100990.09;;;9.15;68.86
78825;BME280;68176;45.554;10.220;2024-01-10T05:42:03;100959.72;;;8.98;68.73
78825;BME280;68176;45.554;10.220;2024-01-10T05:44:35;100972.53;;;9.03;68.89
78825;BME280;68176;45.554;10.220;2024-01-10T05:47:03;100969.19;;;9.01;69.04
78825;BME280;68176;45.554;10.220;2024-01-10T06:02:17;100983.19;;;9.00;68.80
78825;BME280;68176;45.554;10.220;2024-01-10T06:04:44;100989.34;;;8.99;68.65
78825;BME280;68176;45.554;10.220;2024-01-10T06:07:14;100966.16;;;8.93;68.75
78825;BME280;68176;45.554;10.220;2024-01-10T06:12:15;101007.84;;;9.10;68.75
78825;BME280;68176;45.554;10.220;2024-01-10T06:14:44;101008.03;;;9.07;68.70
78825;BME280;68176;45.554;10.220;2024-01-10T06:17:14;101016.63;;;9.09;68.85
78825;BME280;68176;45.554;10.220;2024-01-10T06:19:44;101013.28;;;9.07;68.87
78825;BME280;68176;45.554;10.220;2024-01-10T06:22:14;101015.91;;;9.07;68.80
78825;BME280;68176;45.554;10.220;2024-01-10T06:24:45;101014.19;;;9.06;68.93
78825;BME280;68176;45.554;10.220;2024-01-10T06:27:14;101003.19;;;9.01;68.89
78825;BME280;68176;45.554;10.220;2024-01-10T06:29:45;101016.81;;;9.06;68.87
78825;BME280;68176;45.554;10.220;2024-01-10T06:32:14;101017.75;;;9.05;68.88
78825;BME280;68176;45.554;10.220;2024-01-10T06:34:44;101008.31;;;9.02;68.88
78825;BME280;68176;45.554;10.220;2024-01-10T06:37:14;101009.34;;;9.00;68.86
78825;BME280;68176;45.554;10.220;2024-01-10T06:39:44;101011.03;;;9.01;68.91
78825;BME280;68176;45.554;10.220;2024-01-10T06:42:14;101018.88;;;9.01;68.92
78825;BME280;68176;45.554;10.220;2024-01-10T06:44:44;101016.28;;;9.01;68.95
78825;BME280;68176;45.554;10.220;2024-01-10T06:47:37;101018.13;;;8.99;68.99
78825;BME280;68176;45.554;10.220;2024-01-10T06:50:25;101024.19;;;8.99;68.93
78825;BME280;68176;45.554;10.220;2024-01-10T06:53:00;101027.09;;;8.95;69.09
78825;BME280;68176;45.554;10.220;2024-01-10T06:55:37;101026.16;;;8.96;68.99
78825;BME280;68176;45.554;10.220;2024-01-10T06:58:39;101031.56;;;8.93;68.97
78825;BME280;68176;45.554;10.220;2024-01-10T07:01:04;101035.88;;;8.94;68.82
78825;BME280;68176;45.554;10.220;2024-01-10T07:03:31;101034.19;;;8.93;69.04
78825;BME280;68176;45.554;10.220;2024-01-10T07:19:44;101057.84;;;8.91;68.92
78825;BME280;68176;45.554;10.220;2024-01-10T07:22:11;101046.59;;;8.89;69.00
78825;BME280;68176;45.554;10.220;2024-01-10T07:24:37;101059.69;;;8.89;69.11
78825;BME280;68176;45.554;10.220;2024-01-10T07:27:07;101058.69;;;8.92;69.04
78825;BME280;68176;45.554;10.220;2024-01-10T07:29:37;101070.91;;;8.91;69.12
78825;BME280;68176;45.554;10.220;2024-01-10T07:32:07;101072.69;;;8.91;69.10
78825;BME280;68176;45.554;10.220;2024-01-10T07:34:38;101066.69;;;8.89;69.03
78825;BME280;68176;45.554;10.220;2024-01-10T07:37:08;101076.34;;;8.88;69.02
78825;BME280;68176;45.554;10.220;2024-01-10T07:39:38;101074.53;;;8.89;69.19
78825;BME280;68176;45.554;10.220;2024-01-10T07:42:08;101075.00;;;8.06;54.83
78825;BME280;68176;45.554;10.220;2024-01-10T07:44:38;101093.19;;;8.07;58.26
78825;BME280;68176;45.554;10.220;2024-01-10T07:47:08;101090.56;;;8.23;60.11
78825;BME280;68176;45.554;10.220;2024-01-10T07:49:38;101089.91;;;8.35;60.92
78825;BME280;68176;45.554;10.220;2024-01-10T07:52:08;101090.13;;;8.46;61.53
78825;BME280;68176;45.554;10.220;2024-01-10T07:54:38;101094.09;;;8.53;62.65
78825;BME280;68176;45.554;10.220;2024-01-10T07:57:08;101086.06;;;8.56;63.14
78825;BME280;68176;45.554;10.220;2024-01-10T07:59:39;101088.50;;;8.60;63.84
78825;BME280;68176;45.554;10.220;2024-01-10T08:02:08;101097.94;;;8.62;64.00
78825;BME280;68176;45.554;10.220;2024-01-10T08:04:38;101099.53;;;8.65;64.28
78825;BME280;68176;45.554;10.220;2024-01-10T08:07:08;101096.00;;;8.66;64.53
78825;BME280;68176;45.554;10.220;2024-01-10T08:09:38;101099.34;;;8.68;64.86
78825;BME280;68176;45.554;10.220;2024-01-10T08:12:08;101091.69;;;8.65;65.12
78825;BME280;68176;45.554;10.220;2024-01-10T08:14:38;101096.91;;;8.65;65.14
78825;BME280;68176;45.554;10.220;2024-01-10T08:17:08;101110.41;;;8.73;65.55
78825;BME280;68176;45.554;10.220;2024-01-10T08:19:38;101093.38;;;8.66;65.78
78825;BME280;68176;45.554;10.220;2024-01-10T08:22:10;101107.59;;;8.76;65.68
78825;BME280;68176;45.554;10.220;2024-01-10T08:24:38;101115.44;;;8.76;65.93
78825;BME280;68176;45.554;10.220;2024-01-10T08:27:08;101106.75;;;8.75;66.01
78825;BME280;68176;45.554;10.220;2024-01-10T08:29:38;101112.91;;;8.74;66.18
78825;BME280;68176;45.554;10.220;2024-01-10T08:32:08;101113.75;;;8.75;66.12
78825;BME280;68176;45.554;10.220;2024-01-10T08:34:38;101107.19;;;8.68;66.11
78825;BME280;68176;45.554;10.220;2024-01-10T08:37:08;101119.53;;;8.80;66.33
78825;BME280;68176;45.554;10.220;2024-01-10T08:39:38;101111.69;;;8.80;66.16
78825;BME280;68176;45.554;10.220;2024-01-10T08:42:08;101119.47;;;8.81;66.38
78825;BME280;68176;45.554;10.220;2024-01-10T08:44:38;101122.94;;;8.82;66.52
78825;BME280;68176;45.554;10.220;2024-01-10T08:47:08;101124.69;;;8.81;66.31
78825;BME280;68176;45.554;10.220;2024-01-10T08:49:38;101124.88;;;8.78;66.46
78825;BME280;68176;45.554;10.220;2024-01-10T08:52:08;101135.06;;;8.83;66.59
78825;BME280;68176;45.554;10.220;2024-01-10T08:54:38;101136.19;;;8.79;66.70
78825;BME280;68176;45.554;10.220;2024-01-10T08:57:08;101127.41;;;8.80;66.58
78825;BME280;68176;45.554;10.220;2024-01-10T08:59:41;101125.06;;;8.75;66.54
78825;BME280;68176;45.554;10.220;2024-01-10T09:02:09;101143.88;;;8.82;66.65
78825;BME280;68176;45.554;10.220;2024-01-10T09:04:38;101153.38;;;8.83;66.66
78825;BME280;68176;45.554;10.220;2024-01-10T09:07:08;101141.59;;;8.76;66.85
78825;BME280;68176;45.554;10.220;2024-01-10T09:09:38;101155.06;;;8.84;66.63
78825;BME280;68176;45.554;10.220;2024-01-10T09:12:08;101154.22;;;8.83;66.74
78825;BME280;68176;45.554;10.220;2024-01-10T09:14:38;101149.16;;;8.80;66.53
78825;BME280;68176;45.554;10.220;2024-01-10T09:17:08;101153.38;;;8.83;66.76
78825;BME280;68176;45.554;10.220;2024-01-10T09:19:38;101149.00;;;8.83;66.78
78825;BME280;68176;45.554;10.220;2024-01-10T09:22:08;101154.31;;;8.82;66.72
78825;BME280;68176;45.554;10.220;2024-01-10T09:24:38;101155.91;;;8.84;66.70
78825;BME280;68176;45.554;10.220;2024-01-10T09:27:08;101164.50;;;8.86;66.54
78825;BME280;68176;45.554;10.220;2024-01-10T09:29:38;101162.72;;;8.87;66.60
78825;BME280;68176;45.554;10.220;2024-01-10T09:32:08;101167.88;;;8.88;66.65
78825;BME280;68176;45.554;10.220;2024-01-10T09:34:38;101157.69;;;8.84;66.48
78825;BME280;68176;45.554;10.220;2024-01-10T09:37:08;101172.09;;;8.91;66.92
78825;BME280;68176;45.554;10.220;2024-01-10T09:39:38;101173.94;;;8.89;66.70
78825;BME280;68176;45.554;10.220;2024-01-10T09:42:08;101172.28;;;8.88;66.65
78825;BME280;68176;45.554;10.220;2024-01-10T09:44:38;101163.66;;;8.86;66.62
78825;BME280;68176;45.554;10.220;2024-01-10T09:47:09;101168.72;;;8.89;66.46
78825;BME280;68176;45.554;10.220;2024-01-10T09:49:38;101176.56;;;8.89;66.63
78825;BME280;68176;45.554;10.220;2024-01-10T09:52:10;101163.66;;;8.86;66.64
78825;BME280;68176;45.554;10.220;2024-01-10T09:54:40;101167.22;;;8.85;66.60
78825;BME280;68176;45.554;10.220;2024-01-10T09:57:08;101170.56;;;8.87;66.68
78825;BME280;68176;45.554;10.220;2024-01-10T09:59:38;101173.13;;;8.88;66.65
78825;BME280;68176;45.554;10.220;2024-01-10T10:02:08;101174.97;;;8.86;66.77
78825;BME280;68176;45.554;10.220;2024-01-10T10:04:40;101174.97;;;8.86;66.79
78825;BME280;68176;45.554;10.220;2024-01-10T10:07:08;101165.63;;;8.82;66.76
78825;BME280;68176;45.554;10.220;2024-01-10T10:09:38;101174.97;;;8.86;66.64
78825;BME280;68176;45.554;10.220;2024-01-10T10:12:08;101176.72;;;8.86;66.78
78825;BME280;68176;45.554;10.220;2024-01-10T10:14:38;101165.72;;;8.81;66.64
78825;BME280;68176;45.554;10.220;2024-01-10T10:17:15;101170.56;;;8.87;66.85
78825;BME280;68176;45.554;10.220;2024-01-10T10:19:40;101174.28;;;8.83;67.05
78825;BME280;68176;45.554;10.220;2024-01-10T10:22:09;101162.00;;;8.85;66.87
78825;BME280;68176;45.554;10.220;2024-01-10T10:24:41;101168.72;;;8.89;66.54
78825;BME280;68176;45.554;10.220;2024-01-10T10:27:11;101164.69;;;8.83;67.05
78825;BME280;68176;45.554;10.220;2024-01-10T10:29:38;101163.75;;;8.84;66.80
78825;BME280;68176;45.554;10.220;2024-01-10T10:32:08;101162.06;;;8.83;66.80
78825;BME280;68176;45.554;10.220;2024-01-10T10:34:38;101153.97;;;8.88;66.59
78825;BME280;68176;45.554;10.220;2024-01-10T10:37:09;101153.38;;;8.83;66.67
78825;BME280;68176;45.554;10.220;2024-01-10T10:39:39;101161.63;;;8.91;66.68
78825;BME280;68176;45.554;10.220;2024-01-10T10:42:09;101153.00;;;8.89;66.87
78825;BME280;68176;45.554;10.220;2024-01-10T10:44:40;101161.63;;;8.91;66.69
78825;BME280;68176;45.554;10.220;2024-01-10T10:47:09;101154.72;;;8.90;66.82
78825;BME280;68176;45.554;10.220;2024-01-10T10:49:47;101150.41;;;8.89;66.57
78825;BME280;68176;45.554;10.220;2024-01-10T10:52:15;101162.56;;;8.90;66.65
78825;BME280;68176;45.554;10.220;2024-01-10T10:54:41;101155.00;;;8.85;66.63
78825;BME280;68176;45.554;10.220;2024-01-10T10:57:09;101154.81;;;8.88;66.67
78825;BME280;68176;45.554;10.220;2024-01-10T10:59:40;101150.31;;;8.90;66.68
78825;BME280;68176;45.554;10.220;2024-01-10T11:02:09;101139.84;;;8.90;66.72
78825;BME280;68176;45.554;10.220;2024-01-10T11:04:39;101143.13;;;8.94;66.91
78825;BME280;68176;45.554;10.220;2024-01-10T11:07:08;101141.44;;;8.93;66.79
78825;BME280;68176;45.554;10.220;2024-01-10T11:09:38;101143.03;;;8.95;66.66
78825;BME280;68176;45.554;10.220;2024-01-10T11:12:47;101131.75;;;8.95;66.77
78825;BME280;68176;45.554;10.220;2024-01-10T11:20:53;101127.44;;;8.94;66.83
78825;BME280;68176;45.554;10.220;2024-01-10T11:23:43;101122.03;;;8.97;66.76
78825;BME280;68176;45.554;10.220;2024-01-10T11:26:10;101117.06;;;8.92;66.77
78825;BME280;68176;45.554;10.220;2024-01-10T11:28:36;101116.78;;;8.97;66.82
78825;BME280;68176;45.554;10.220;2024-01-10T11:31:06;101098.19;;;8.87;66.67
78825;BME280;68176;45.554;10.220;2024-01-10T11:33:35;101114.00;;;9.00;66.74
78825;BME280;68176;45.554;10.220;2024-01-10T11:36:19;101109.78;;;8.97;66.86
78825;BME280;68176;45.554;10.220;2024-01-10T11:41:34;101111.38;;;9.00;66.75
78825;BME280;68176;45.554;10.220;2024-01-10T11:46:41;101100.38;;;8.95;66.91
78825;BME280;68176;45.554;10.220;2024-01-10T11:49:08;101097.16;;;8.90;67.00
78825;BME280;68176;45.554;10.220;2024-01-10T11:51:37;101101.09;;;8.97;66.94
78825;BME280;68176;45.554;10.220;2024-01-10T11:54:04;101099.50;;;8.94;66.71
78825;BME280;68176;45.554;10.220;2024-01-10T11:56:39;101096.06;;;8.94;66.75
78825;BME280;68176;45.554;10.220;2024-01-10T11:59:10;101094.28;;;8.94;66.96
78825;BME280;68176;45.554;10.220;2024-01-10T12:01:37;101097.81;;;8.93;66.81
78825;BME280;68176;45.554;10.220;2024-01-10T12:04:03;101082.22;;;8.92;66.89
78825;BME280;68176;45.554;10.220;2024-01-10T12:06:33;101084.00;;;8.91;66.97
78825;BME280;68176;45.554;10.220;2024-01-10T12:09:02;101084.66;;;8.95;66.79
78825;BME280;68176;45.554;10.220;2024-01-10T12:11:37;101077.00;;;8.92;66.89
78825;BME280;68176;45.554;10.220;2024-01-10T12:14:04;101074.19;;;8.95;67.04
78825;BME280;68176;45.554;10.220;2024-01-10T12:16:35;101070.63;;;8.96;66.76
78825;BME280;68176;45.554;10.220;2024-01-10T12:19:02;101076.03;;;8.93;66.74
78825;BME280;68176;45.554;10.220;2024-01-10T12:21:32;101075.84;;;8.96;66.60
78825;BME280;68176;45.554;10.220;2024-01-10T12:24:05;101063.41;;;8.71;57.98
78825;BME280;68176;45.554;10.220;2024-01-10T12:26:32;101061.75;;;8.40;51.66
78825;BME280;68176;45.554;10.220;2024-01-10T12:29:02;101062.13;;;8.03;50.05
78825;BME280;68176;45.554;10.220;2024-01-10T12:31:31;101055.09;;;8.19;51.14
78825;BME280;68176;45.554;10.220;2024-01-10T12:34:02;101066.31;;;8.21;51.13
78825;BME280;68176;45.554;10.220;2024-01-10T12:36:32;101062.94;;;8.19;49.67
78825;BME280;68176;45.554;10.220;2024-01-10T12:39:02;101055.78;;;8.07;51.00
78825;BME280;68176;45.554;10.220;2024-01-10T12:41:32;101064.13;;;7.98;51.53
78825;BME280;68176;45.554;10.220;2024-01-10T12:44:03;101060.69;;;7.82;50.41
78825;BME280;68176;45.554;10.220;2024-01-10T12:46:32;101057.47;;;7.92;52.07
78825;BME280;68176;45.554;10.220;2024-01-10T12:49:04;101062.44;;;8.13;52.59
78825;BME280;68176;45.554;10.220;2024-01-10T12:51:33;101053.91;;;8.25;54.07
78825;BME280;68176;45.554;10.220;2024-01-10T12:54:02;101049.94;;;8.33;55.55
78825;BME280;68176;45.554;10.220;2024-01-10T12:56:32;101044.97;;;8.44;56.42
78825;BME280;68176;45.554;10.220;2024-01-10T12:59:02;101046.25;;;8.51;57.26
78825;BME280;68176;45.554;10.220;2024-01-10T13:01:32;101029.56;;;8.54;57.79
78825;BME280;68176;45.554;10.220;2024-01-10T13:04:02;101036.41;;;8.56;58.62
78825;BME280;68176;45.554;10.220;2024-01-10T13:06:32;101034.34;;;8.62;58.75
78825;BME280;68176;45.554;10.220;2024-01-10T13:09:02;101032.47;;;8.64;59.49
78825;BME280;68176;45.554;10.220;2024-01-10T13:11:32;101027.09;;;8.67;59.74
78825;BME280;68176;45.554;10.220;2024-01-10T13:14:02;101031.34;;;8.68;60.00
78825;BME280;68176;45.554;10.220;2024-01-10T13:16:32;101028.56;;;8.71;60.40
78825;BME280;68176;45.554;10.220;2024-01-10T13:19:02;101027.34;;;8.76;60.51
78825;BME280;68176;45.554;10.220;2024-01-10T13:21:32;101028.31;;;8.75;60.58
78825;BME280;68176;45.554;10.220;2024-01-10T13:24:02;101032.50;;;8.78;60.92
78825;BME280;68176;45.554;10.220;2024-01-10T13:26:32;101028.00;;;8.80;60.99
78825;BME280;68176;45.554;10.220;2024-01-10T13:29:02;101028.78;;;8.82;61.21
78825;BME280;68176;45.554;10.220;2024-01-10T13:31:32;101025.38;;;8.80;61.20
78825;BME280;68176;45.554;10.220;2024-01-10T13:34:02;101029.69;;;8.81;61.41
78825;BME280;68176;45.554;10.220;2024-01-10T13:36:32;101032.25;;;8.82;61.25
78825;BME280;68176;45.554;10.220;2024-01-10T13:39:02;101026.81;;;8.85;61.53
78825;BME280;68176;45.554;10.220;2024-01-10T13:41:32;101025.97;;;8.85;61.72
78825;BME280;68176;45.554;10.220;2024-01-10T13:44:02;101028.41;;;8.88;61.63
78825;BME280;68176;45.554;10.220;2024-01-10T13:46:32;101014.66;;;8.84;62.01
78825;BME280;68176;45.554;10.220;2024-01-10T13:49:02;101024.03;;;8.88;61.80
78825;BME280;68176;45.554;10.220;2024-01-10T13:51:32;101026.63;;;8.88;62.13
78825;BME280;68176;45.554;10.220;2024-01-10T13:54:02;101023.34;;;8.85;62.27
78825;BME280;68176;45.554;10.220;2024-01-10T13:56:32;101029.13;;;8.90;62.24
78825;BME280;68176;45.554;10.220;2024-01-10T13:59:02;101022.22;;;8.89;62.34
78825;BME280;68176;45.554;10.220;2024-01-10T14:01:32;101024.75;;;8.90;62.25
78825;BME280;68176;45.554;10.220;2024-01-10T14:04:02;101016.25;;;8.87;62.27
78825;BME280;68176;45.554;10.220;2024-01-10T14:06:32;101016.06;;;8.90;62.50
78825;BME280;68176;45.554;10.220;2024-01-10T14:09:02;101019.53;;;8.90;62.24
78825;BME280;68176;45.554;10.220;2024-01-10T14:11:32;101010.16;;;8.86;62.67
78825;BME280;68176;45.554;10.220;2024-01-10T14:14:02;101024.75;;;8.90;62.37
78825;BME280;68176;45.554;10.220;2024-01-10T14:16:32;101017.84;;;8.89;62.69
78825;BME280;68176;45.554;10.220;2024-01-10T14:19:02;101019.53;;;8.90;62.76
78825;BME280;68176;45.554;10.220;2024-01-10T14:21:33;101016.84;;;8.92;62.90
78825;BME280;68176;45.554;10.220;2024-01-10T14:24:02;101014.22;;;8.92;62.70
78825;BME280;68176;45.554;10.220;2024-01-10T14:26:32;101013.44;;;8.90;62.74
78825;BME280;68176;45.554;10.220;2024-01-10T14:29:03;101010.09;;;8.88;63.04
78825;BME280;68176;45.554;10.220;2024-01-10T14:31:32;101020.38;;;8.91;62.91
78825;BME280;68176;45.554;10.220;2024-01-10T14:34:02;101018.50;;;8.93;63.08
78825;BME280;68176;45.554;10.220;2024-01-10T14:36:32;101021.22;;;8.91;63.04
78825;BME280;68176;45.554;10.220;2024-01-10T14:39:02;101027.09;;;8.95;63.13
78825;BME280;68176;45.554;10.220;2024-01-10T14:41:32;101016.84;;;8.92;62.96
78825;BME280;68176;45.554;10.220;2024-01-10T14:44:02;101019.44;;;8.92;62.77
78825;BME280;68176;45.554;10.220;2024-01-10T14:46:32;101014.03;;;8.95;63.17
78825;BME280;68176;45.554;10.220;2024-01-10T14:49:02;101021.03;;;8.94;63.23
78825;BME280;68176;45.554;10.220;2024-01-10T14:51:32;101024.38;;;8.96;63.29
78825;BME280;68176;45.554;10.220;2024-01-10T14:54:02;101033.25;;;8.94;62.93
78825;BME280;68176;45.554;10.220;2024-01-10T14:56:32;101017.75;;;8.91;63.38
78825;BME280;68176;45.554;10.220;2024-01-10T14:59:02;101023.72;;;8.93;63.20
78825;BME280;68176;45.554;10.220;2024-01-10T15:01:32;101020.06;;;8.95;63.19
78825;BME280;68176;45.554;10.220;2024-01-10T15:04:02;101021.94;;;8.93;63.54
78825;BME280;68176;45.554;10.220;2024-01-10T15:06:32;101014.38;;;8.89;63.64
78825;BME280;68176;45.554;10.220;2024-01-10T15:09:02;101029.06;;;8.91;63.55
78825;BME280;68176;45.554;10.220;2024-01-10T15:11:32;101017.16;;;8.86;63.79
78825;BME280;68176;45.554;10.220;2024-01-10T15:14:02;101022.06;;;8.92;63.54
78825;BME280;68176;45.554;10.220;2024-01-10T15:16:32;101027.56;;;8.87;63.79
78825;BME280;68176;45.554;10.220;2024-01-10T15:19:02;101023.19;;;8.88;63.70
78825;BME280;68176;45.554;10.220;2024-01-10T15:21:32;101018.88;;;8.87;63.71
78825;BME280;68176;45.554;10.220;2024-01-10T15:24:03;101021.66;;;8.84;63.94
78825;BME280;68176;45.554;10.220;2024-01-10T15:26:32;101020.75;;;8.85;63.80
78825;BME280;68176;45.554;10.220;2024-01-10T15:29:03;101025.97;;;8.85;64.00
78825;BME280;68176;45.554;10.220;2024-01-10T15:31:32;101024.28;;;8.84;63.89
78825;BME280;68176;45.554;10.220;2024-01-10T15:34:02;101024.28;;;8.84;64.41
78825;BME280;68176;45.554;10.220;2024-01-10T15:36:32;101023.34;;;8.85;64.28
78825;BME280;68176;45.554;10.220;2024-01-10T15:39:02;101027.63;;;8.86;64.18
78825;BME280;68176;45.554;10.220;2024-01-10T15:41:32;101025.19;;;8.83;64.21
78825;BME280;68176;45.554;10.220;2024-01-10T15:44:03;101026.16;;;8.82;64.25
78825;BME280;68176;45.554;10.220;2024-01-10T15:46:33;101026.22;;;8.80;64.21
78825;BME280;68176;45.554;10.220;2024-01-10T15:49:02;101027.81;;;8.83;64.37
78825;BME280;68176;45.554;10.220;2024-01-10T15:51:33;101034.00;;;8.82;64.33
78825;BME280;68176;45.554;10.220;2024-01-10T15:54:03;101034.00;;;8.82;64.27
78825;BME280;68176;45.554;10.220;2024-01-10T15:56:33;101026.34;;;8.79;64.33
78825;BME280;68176;45.554;10.220;2024-01-10T15:59:02;101036.63;;;8.82;64.20
78825;BME280;68176;45.554;10.220;2024-01-10T16:01:34;101027.09;;;8.81;64.51
78825;BME280;68176;45.554;10.220;2024-01-10T16:04:02;101028.00;;;8.80;64.39
78825;BME280;68176;45.554;10.220;2024-01-10T16:06:33;101034.09;;;8.80;64.65
78825;BME280;68176;45.554;10.220;2024-01-10T16:09:03;101028.97;;;8.79;64.67
78825;BME280;68176;45.554;10.220;2024-01-10T16:11:39;101040.91;;;8.83;64.36
78825;BME280;68176;45.554;10.220;2024-01-10T16:14:05;101040.28;;;8.79;64.79
78825;BME280;68176;45.554;10.220;2024-01-10T16:16:32;101030.81;;;8.77;64.57
78825;BME280;68176;45.554;10.220;2024-01-10T16:19:03;101028.84;;;8.80;64.82
78825;BME280;68176;45.554;10.220;2024-01-10T16:21:33;101038.66;;;8.77;64.45
78825;BME280;68176;45.554;10.220;2024-01-10T16:24:03;101038.47;;;8.80;64.78
78825;BME280;68176;45.554;10.220;2024-01-10T16:26:33;101037.72;;;8.78;64.86
78825;BME280;68176;45.554;10.220;2024-01-10T16:29:03;101043.69;;;8.80;64.63
78825;BME280;68176;45.554;10.220;2024-01-10T16:31:33;101040.16;;;8.81;64.72
78825;BME280;68176;45.554;10.220;2024-01-10T16:34:03;101042.03;;;8.79;64.87